Belen, NM (87002)

10:44 AM MDT on July 25, 2016 (GMT -0600)
Pasitos del Cielo | | Change Station

Elev 4931 ft 34.73 °N, 106.70 °W | Updated 10 seconds ago

Scattered Clouds
Scattered Clouds
88.0 °F
Feels Like 85 °F
N
0.0
Wind Variable Wind from SW
Gusts 0.0 mph

Today
High -- | Low -- °F
--% Chance of Precip.
Yesterday
High -- | Low -- °F
Precip. -- in
Pressure 30.26 in
Visibility 10.0 miles
Clouds Scattered Clouds 12000 ft
Heat Index 85 °F
Dew Point 49 °F
Humidity 26%
Rainfall 0.04 in
Snow Depth Not available.
6:12 AM 8:13 PM
Waning Gibbous, 64% visible
METAR KE80 251635Z AUTO 22004KT 10SM SCT120 28/10 A3026 RMK AO2 T02800103
Pressure 30.26 in
Visibility 10.0 miles
Clouds Scattered Clouds 12000 ft
Heat Index 85 °F
Dew Point 49 °F
Humidity 26%
Rainfall 0.04 in
Snow Depth Not available.
6:12 AM 8:13 PM
Waning Gibbous, 64% visible
METAR KE80 251635Z AUTO 22004KT 10SM SCT120 28/10 A3026 RMK AO2 T02800103

10-Day Weather Forecast

Almanac

Astronomy

Jul. 25, 2016 Rise Set
Actual Time
Civil Twilight
Nautical Twilight
Astronomical Twilight
Moon
Length of Visible Light
Length of Day
Tomorrow will be .
, % of the Moon is Illuminated

Today's Extremes

State Highs State Lows

Community

WunderPhotos

Upload Photos

1,927,349 photos uploaded!

WunderBlog® & News

Nearby

Air Quality

  Air Quality AQ Index Pollutant
Not available.

Snow Depth

Station Depth Elevation

Earthquake Activity

City Distance Mag. Time & Date
Minimum magnitude displayed is 2.5.

Coastal Water Temperatures

Place Temperature

Stations

Nearby Weather Stations

Station Location Temp. Windchill Dew Point Humidity Wind Precip. Elev Updated Type
                   

Watches & Warnings

There are currently no watches in effect.